createdAt,value
2019-02-26T00:02:14.837Z,7.40
2019-02-26T00:04:49.116Z,6.73
2019-02-26T00:07:23.433Z,6.20
2019-02-26T00:09:55.034Z,5.53
2019-02-26T00:12:26.363Z,6.60
2019-02-26T00:15:00.226Z,6.87
2019-02-26T00:17:36.250Z,6.13
2019-02-26T00:20:10.930Z,6.30
2019-02-26T00:22:42.143Z,6.60
2019-02-26T00:25:15.309Z,6.33
2019-02-26T00:27:47.677Z,6.80
2019-02-26T00:30:19.963Z,6.30
2019-02-26T00:32:53.119Z,6.10
2019-02-26T00:35:25.252Z,6.07
2019-02-26T00:37:57.333Z,6.97
2019-02-26T00:40:28.847Z,6.47
2019-02-26T00:43:02.041Z,6.47
2019-02-26T00:45:34.152Z,6.30
2019-02-26T00:48:06.339Z,6.23
2019-02-26T00:50:39.658Z,6.70
2019-02-26T00:53:10.654Z,6.20
2019-02-26T00:55:43.040Z,6.17
2019-02-26T00:58:14.341Z,6.60
2019-02-26T01:00:45.806Z,6.27
2019-02-26T01:03:17.103Z,5.50
2019-02-26T01:05:48.416Z,6.33
2019-02-26T01:08:19.971Z,6.20
2019-02-26T01:10:59.247Z,5.93
2019-02-26T01:13:32.278Z,6.00
2019-02-26T01:16:03.689Z,5.80
2019-02-26T01:18:36.618Z,5.90
2019-02-26T01:21:08.042Z,5.67
2019-02-26T01:23:39.286Z,5.60
2019-02-26T01:26:12.221Z,5.80
2019-02-26T01:28:46.113Z,5.67
2019-02-26T01:31:16.758Z,5.57
2019-02-26T01:33:48.607Z,5.53
2019-02-26T01:36:23.193Z,5.63
2019-02-26T01:38:54.343Z,4.87
2019-02-26T01:41:27.292Z,5.63
2019-02-26T01:43:58.677Z,5.30
2019-02-26T01:46:30.486Z,5.00
2019-02-26T01:49:04.312Z,5.03
2019-02-26T01:51:35.786Z,4.63
2019-02-26T01:54:08.181Z,4.10
2019-02-26T01:56:40.115Z,4.27
2019-02-26T01:59:12.548Z,4.43
2019-02-26T02:01:44.704Z,4.23
2019-02-26T02:04:19.597Z,4.43
2019-02-26T02:06:51.011Z,4.80
2019-02-26T02:09:25.034Z,4.33
2019-02-26T02:11:57.399Z,4.80
2019-02-26T02:14:29.658Z,4.30
2019-02-26T02:17:03.278Z,4.37
2019-02-26T02:19:34.208Z,4.40
2019-02-26T02:22:06.720Z,4.60
2019-02-26T02:24:39.243Z,4.50
2019-02-26T02:27:12.625Z,4.50
2019-02-26T02:29:46.097Z,4.33
2019-02-26T02:32:17.295Z,4.20
2019-02-26T02:34:48.565Z,4.57
2019-02-26T02:37:24.079Z,4.80
2019-02-26T02:39:53.035Z,4.83
2019-02-26T02:42:24.431Z,4.63
2019-02-26T02:44:55.682Z,4.37
2019-02-26T02:47:29.909Z,4.50
2019-02-26T02:50:00.033Z,4.13
2019-02-26T02:52:33.145Z,4.20
2019-02-26T02:55:06.888Z,4.80
2019-02-26T02:57:39.849Z,4.40
2019-02-26T03:00:14.583Z,4.23
2019-02-26T03:02:49.742Z,5.17
2019-02-26T03:05:20.752Z,4.43
2019-02-26T03:07:54.034Z,4.20
2019-02-26T03:10:28.444Z,4.53
2019-02-26T03:13:00.328Z,4.50
2019-02-26T03:15:33.742Z,4.03
2019-02-26T03:18:06.601Z,4.50
2019-02-26T03:20:40.216Z,4.00
2019-02-26T03:23:15.767Z,4.07
2019-02-26T03:25:47.198Z,4.20
2019-02-26T03:28:18.247Z,4.73
2019-02-26T03:30:49.520Z,4.17
2019-02-26T03:33:20.849Z,3.83
2019-02-26T03:35:52.265Z,5.00
2019-02-26T03:38:26.133Z,3.97
2019-02-26T03:40:59.088Z,4.47
2019-02-26T03:43:31.521Z,3.60
2019-02-26T03:46:02.665Z,4.23
2019-02-26T03:48:34.081Z,4.20
2019-02-26T03:51:05.520Z,4.30
2019-02-26T03:53:39.030Z,3.83
2019-02-26T03:56:12.541Z,4.67
2019-02-26T03:58:43.531Z,4.43
2019-02-26T04:01:18.322Z,4.33
2019-02-26T04:03:49.161Z,4.27
2019-02-26T04:06:21.516Z,4.33
2019-02-26T04:08:55.339Z,4.13
2019-02-26T04:11:27.763Z,4.07
2019-02-26T04:14:00.024Z,4.57
2019-02-26T04:16:32.463Z,4.53
2019-02-26T04:19:05.855Z,5.00
2019-02-26T04:22:33.312Z,5.17
2019-02-26T04:25:33.925Z,4.77
2019-02-26T04:28:30.658Z,4.63
2019-02-26T04:31:05.672Z,5.17
2019-02-26T04:34:08.432Z,5.00
2019-02-26T04:37:04.657Z,4.90
2019-02-26T04:39:44.374Z,5.40
2019-02-26T04:42:40.992Z,5.20
2019-02-26T04:45:32.302Z,5.70
2019-02-26T04:48:17.140Z,4.93
2019-02-26T04:50:47.222Z,5.17
2019-02-26T04:53:18.616Z,5.33
2019-02-26T04:55:49.977Z,4.77
2019-02-26T04:58:22.681Z,4.93
2019-02-26T05:00:54.271Z,7.27
2019-02-26T05:03:25.627Z,6.90
2019-02-26T05:05:59.535Z,6.40
2019-02-26T05:08:32.162Z,6.50
2019-02-26T05:11:02.960Z,6.10
2019-02-26T05:13:34.669Z,7.30
2019-02-26T05:16:06.180Z,7.07
2019-02-26T05:18:37.517Z,6.30
2019-02-26T05:21:10.851Z,7.90
2019-02-26T05:23:41.936Z,7.23
2019-02-26T05:26:15.105Z,6.93
2019-02-26T05:28:49.677Z,6.40
2019-02-26T05:31:21.466Z,6.90
2019-02-26T05:33:55.340Z,6.10
2019-02-26T05:36:28.139Z,6.13
2019-02-26T05:39:00.349Z,6.90
2019-02-26T05:41:33.651Z,6.43
2019-02-26T05:44:08.353Z,6.23
2019-02-26T05:46:38.210Z,6.47
2019-02-26T05:49:13.259Z,6.80
2019-02-26T05:51:42.812Z,7.50
2019-02-26T05:54:17.455Z,7.10
2019-02-26T05:56:49.802Z,6.77
2019-02-26T05:59:21.804Z,6.97
2019-02-26T06:01:55.894Z,7.30
2019-02-26T06:04:27.383Z,6.97
2019-02-26T06:06:59.893Z,9.00
2019-02-26T06:09:33.815Z,7.03
2019-02-26T06:12:04.913Z,7.53
2019-02-26T06:14:39.172Z,7.97
2019-02-26T06:17:10.509Z,8.37
2019-02-26T06:19:52.390Z,8.00
2019-02-26T06:22:26.487Z,7.70
2019-02-26T06:24:59.555Z,6.97
2019-02-26T06:27:29.724Z,7.50
2019-02-26T06:30:05.906Z,7.57
2019-02-26T06:32:37.065Z,8.50
2019-02-26T06:35:16.271Z,7.33
2019-02-26T06:37:47.312Z,7.10
2019-02-26T06:40:18.926Z,7.20
2019-02-26T06:42:50.359Z,7.40
2019-02-26T06:45:21.656Z,7.67
2019-02-26T06:47:54.599Z,7.00
2019-02-26T06:50:26.033Z,7.37
2019-02-26T06:52:57.309Z,7.43
2019-02-26T06:55:28.568Z,7.63
2019-02-26T06:58:21.569Z,7.37
2019-02-26T07:00:55.341Z,7.13
2019-02-26T07:03:26.121Z,6.90
2019-02-26T07:05:59.683Z,6.93
2019-02-26T07:08:31.026Z,6.40
2019-02-26T07:11:04.004Z,7.13
2019-02-26T07:13:38.590Z,6.20
2019-02-26T07:16:09.714Z,6.57
2019-02-26T07:18:41.096Z,6.40
2019-02-26T07:21:12.396Z,6.97
2019-02-26T07:23:43.718Z,7.80
2019-02-26T07:26:16.072Z,7.57
2019-02-26T07:28:48.741Z,7.77
2019-02-26T07:31:21.113Z,7.57
2019-02-26T07:33:55.759Z,7.07
2019-02-26T07:36:28.146Z,7.77
2019-02-26T07:38:59.646Z,7.83
2019-02-26T07:41:30.972Z,7.57
2019-02-26T07:44:02.405Z,8.13
2019-02-26T07:46:35.571Z,8.20
2019-02-26T07:49:07.487Z,8.20
2019-02-26T07:51:40.550Z,8.07
2019-02-26T07:54:12.042Z,8.87
2019-02-26T07:56:43.334Z,8.07
2019-02-26T07:59:15.949Z,8.83
2019-02-26T08:01:49.558Z,8.80
2019-02-26T08:04:20.393Z,9.53
2019-02-26T08:06:54.998Z,9.73
2019-02-26T08:09:25.185Z,11.53
2019-02-26T08:11:56.541Z,11.87
2019-02-26T08:14:27.843Z,11.03
2019-02-26T08:17:01.306Z,10.50
2019-02-26T08:19:34.430Z,10.63
2019-02-26T08:22:05.294Z,10.57
2019-02-26T08:24:36.695Z,10.67
2019-02-26T08:27:08.535Z,10.27
2019-02-26T08:29:40.787Z,10.80
2019-02-26T08:32:15.890Z,10.00
2019-02-26T08:34:45.061Z,10.80
2019-02-26T08:37:16.580Z,10.70
2019-02-26T08:39:47.839Z,11.07
2019-02-26T08:42:19.174Z,11.00
2019-02-26T08:44:51.220Z,10.43
2019-02-26T08:47:23.669Z,10.93
2019-02-26T08:49:54.995Z,9.87
2019-02-26T08:52:27.585Z,10.20
2019-02-26T08:54:59.389Z,9.77
2019-02-26T08:57:30.720Z,11.37
2019-02-26T09:00:02.133Z,10.57
2019-02-26T09:02:34.035Z,10.13
2019-02-26T09:05:09.344Z,10.27
2019-02-26T09:07:42.702Z,10.30
2019-02-26T09:10:22.642Z,10.13
2019-02-26T09:12:52.243Z,9.90
2019-02-26T09:15:23.955Z,9.20
2019-02-26T09:17:55.246Z,9.93
2019-02-26T09:20:26.928Z,10.53
2019-02-26T09:22:59.537Z,10.50
2019-02-26T09:25:33.974Z,9.33
2019-02-26T09:28:05.597Z,10.30
2019-02-26T09:30:38.862Z,9.88
2019-02-26T09:33:11.079Z,9.50
2019-02-26T09:35:42.542Z,9.78
2019-02-26T09:38:15.141Z,8.73
2019-02-26T09:40:48.226Z,9.65
2019-02-26T09:43:22.036Z,9.17
2019-02-26T09:45:53.210Z,9.13
2019-02-26T09:48:24.554Z,9.73
2019-02-26T09:50:55.958Z,8.88
2019-02-26T09:53:27.282Z,10.00
2019-02-26T09:55:58.685Z,10.08
2019-02-26T09:58:30.019Z,10.08
2019-02-26T10:01:01.294Z,9.75
2019-02-26T10:03:36.747Z,10.90
2019-02-26T10:06:05.849Z,9.73
2019-02-26T10:08:37.179Z,9.90
2019-02-26T10:11:08.518Z,10.65
2019-02-26T10:13:41.922Z,9.90
2019-02-26T10:16:12.941Z,10.28
2019-02-26T10:18:45.024Z,10.93
2019-02-26T10:21:19.848Z,11.10
2019-02-26T10:23:52.133Z,10.35
2019-02-26T10:26:26.110Z,10.18
2019-02-26T10:29:03.443Z,11.48
2019-02-26T10:31:29.945Z,11.33
2019-02-26T10:34:03.070Z,10.68
2019-02-26T10:36:36.392Z,10.80
2019-02-26T10:39:08.577Z,11.35
2019-02-26T10:41:42.327Z,10.40
2019-02-26T10:44:14.814Z,10.88
2019-02-26T10:46:46.337Z,10.63
2019-02-26T10:49:17.677Z,10.38
2019-02-26T10:51:49.154Z,10.15
2019-02-26T10:54:20.434Z,10.20
2019-02-26T10:56:51.763Z,9.75
2019-02-26T10:59:23.601Z,9.68
2019-02-26T11:01:57.261Z,9.50
2019-02-26T11:04:34.700Z,9.65
2019-02-26T11:07:08.454Z,9.58
2019-02-26T11:09:37.327Z,9.98
2019-02-26T11:12:08.766Z,8.65
2019-02-26T11:14:41.962Z,8.75
2019-02-26T11:17:15.819Z,9.55
2019-02-26T11:19:47.967Z,9.48
2019-02-26T11:22:21.355Z,9.28
2019-02-26T11:24:53.484Z,9.78
2019-02-26T11:27:25.526Z,9.28
2019-02-26T11:29:57.802Z,9.85
2019-02-26T11:32:30.628Z,10.30
2019-02-26T11:35:03.138Z,10.43
2019-02-26T11:37:34.406Z,9.38
2019-02-26T11:40:12.872Z,9.88
2019-02-26T11:42:46.259Z,10.23
2019-02-26T11:45:23.275Z,9.65
2019-02-26T11:47:55.805Z,10.10
2019-02-26T11:50:28.528Z,9.53
2019-02-26T11:53:00.665Z,9.93
2019-02-26T11:55:34.352Z,9.38
2019-02-26T11:58:07.726Z,9.53
2019-02-26T12:00:52.273Z,9.93
2019-02-26T12:03:27.252Z,10.38
2019-02-26T12:05:59.096Z,9.25
2019-02-26T12:08:29.848Z,9.58
2019-02-26T12:11:04.054Z,9.70
2019-02-26T12:13:34.472Z,8.98
2019-02-26T12:16:06.008Z,8.75
2019-02-26T12:18:39.127Z,8.33
2019-02-26T12:21:12.899Z,8.70
2019-02-26T12:23:46.648Z,9.35
2019-02-26T12:26:19.317Z,8.45
2019-02-26T12:28:52.376Z,8.50
2019-02-26T12:31:25.271Z,8.23
2019-02-26T12:33:56.991Z,7.92
2019-02-26T12:36:29.846Z,7.33
2019-02-26T12:39:02.439Z,8.23
2019-02-26T12:41:36.569Z,7.85
2019-02-26T12:44:12.968Z,7.87
2019-02-26T12:46:41.738Z,7.53
2019-02-26T12:49:16.025Z,8.25
2019-02-26T12:51:47.606Z,7.90
2019-02-26T12:54:19.291Z,8.18
2019-02-26T12:56:52.324Z,8.05
2019-02-26T12:59:23.670Z,6.97
2019-02-26T13:01:55.151Z,6.28
2019-02-26T13:04:26.435Z,8.50
2019-02-26T13:06:57.931Z,7.37
2019-02-26T13:09:29.266Z,7.78
2019-02-26T13:12:02.784Z,9.08
2019-02-26T13:14:33.735Z,8.58
2019-02-26T13:17:06.291Z,7.80
2019-02-26T13:19:37.627Z,7.55
2019-02-26T13:22:12.846Z,7.40
2019-02-26T13:24:42.092Z,6.62
2019-02-26T13:27:13.549Z,7.47
2019-02-26T13:29:53.670Z,8.10
2019-02-26T13:32:21.042Z,7.05
2019-02-26T13:34:52.522Z,6.50
2019-02-26T13:37:26.397Z,7.00
2019-02-26T13:39:57.163Z,7.37
2019-02-26T13:42:28.717Z,5.83
2019-02-26T13:45:00.177Z,6.97
2019-02-26T13:47:31.649Z,5.90
2019-02-26T13:50:03.064Z,5.60
2019-02-26T13:52:35.699Z,5.92
2019-02-26T13:55:10.551Z,6.83
2019-02-26T13:57:41.997Z,6.25
2019-02-26T14:00:15.496Z,5.65
2019-02-26T14:02:47.101Z,6.20
2019-02-26T14:05:26.733Z,6.15
2019-02-26T14:07:58.284Z,6.20
2019-02-26T14:10:29.612Z,5.05
2019-02-26T14:13:01.026Z,5.22
2019-02-26T14:15:32.807Z,5.55
2019-02-26T14:18:04.479Z,4.80
2019-02-26T14:20:35.790Z,5.55
2019-02-26T14:23:07.235Z,5.33
2019-02-26T14:25:38.580Z,5.30
2019-02-26T14:28:10.062Z,5.08
2019-02-26T14:30:41.466Z,5.17
2019-02-26T14:33:12.856Z,5.85
2019-02-26T14:35:44.168Z,6.15
2019-02-26T14:38:15.561Z,5.65
2019-02-26T14:40:46.987Z,5.78
2019-02-26T14:43:18.438Z,5.78
2019-02-26T14:45:49.708Z,6.08
2019-02-26T14:48:21.099Z,6.03
2019-02-26T14:50:52.511Z,6.03
2019-02-26T14:53:23.910Z,6.05
2019-02-26T14:55:55.253Z,5.37
2019-02-26T14:58:26.664Z,5.45
2019-02-26T15:01:00.270Z,6.53
2019-02-26T15:03:32.710Z,5.87
2019-02-26T15:06:03.985Z,6.20
2019-02-26T15:08:36.646Z,5.42
2019-02-26T15:11:08.003Z,6.17
2019-02-26T15:13:39.327Z,6.40
2019-02-26T15:16:10.675Z,5.87
2019-02-26T15:18:41.967Z,6.25
2019-02-26T15:21:13.321Z,5.83
2019-02-26T15:23:44.738Z,5.75
2019-02-26T15:26:16.218Z,5.40
2019-02-26T15:28:49.028Z,5.62
2019-02-26T15:31:20.606Z,5.53
2019-02-26T15:33:52.001Z,5.72
2019-02-26T15:36:24.499Z,5.62
2019-02-26T15:38:55.783Z,5.97
2019-02-26T15:41:27.207Z,6.20
2019-02-26T15:43:58.493Z,6.22
2019-02-26T15:46:30.891Z,6.58
2019-02-26T15:49:02.899Z,6.12
2019-02-26T15:51:34.309Z,5.65
2019-02-26T15:54:05.679Z,5.75
2019-02-26T15:56:37.107Z,6.08
2019-02-26T15:59:08.694Z,5.62
2019-02-26T16:01:40.298Z,5.95
2019-02-26T16:04:11.901Z,6.05
2019-02-26T16:06:43.320Z,6.33
2019-02-26T16:09:15.493Z,9.80
2019-02-26T16:11:47.060Z,6.20
2019-02-26T16:14:18.477Z,14.50
2019-02-26T16:16:49.848Z,6.75
2019-02-26T16:19:21.376Z,9.50
2019-02-26T16:21:52.796Z,5.60
2019-02-26T16:24:24.092Z,5.45
2019-02-26T16:27:07.089Z,14.30
2019-02-26T16:29:38.927Z,6.42
2019-02-26T16:32:10.363Z,7.92
2019-02-26T16:34:43.222Z,5.67
2019-02-26T16:37:14.714Z,6.12
2019-02-26T16:39:46.197Z,6.37
2019-02-26T16:42:17.649Z,6.05
2019-02-26T16:44:49.057Z,6.20
2019-02-26T16:47:20.424Z,6.22
2019-02-26T16:49:52.043Z,6.08
2019-02-26T16:52:27.358Z,6.10
2019-02-26T16:54:56.532Z,6.15
2019-02-26T16:57:28.260Z,5.92
2019-02-26T17:00:00.544Z,5.35
2019-02-26T17:02:33.487Z,5.50
2019-02-26T17:05:07.481Z,5.62
2019-02-26T17:07:39.042Z,6.00
2019-02-26T17:10:17.721Z,5.67
2019-02-26T17:12:56.130Z,6.78
2019-02-26T17:15:35.242Z,7.08
2019-02-26T17:18:09.597Z,7.95
2019-02-26T17:20:40.248Z,6.47
2019-02-26T17:23:14.020Z,6.58
2019-02-26T17:25:45.946Z,6.03
2019-02-26T17:28:17.472Z,5.87
2019-02-26T17:30:48.776Z,5.08
2019-02-26T17:33:20.255Z,5.62
2019-02-26T17:35:52.949Z,5.92
2019-02-26T17:38:26.008Z,6.47
2019-02-26T17:40:57.627Z,5.67
2019-02-26T17:43:29.157Z,6.05
2019-02-26T17:46:02.454Z,5.50
2019-02-26T17:48:43.291Z,5.72
2019-02-26T17:51:07.323Z,6.03
2019-02-26T17:53:40.714Z,6.75
2019-02-26T17:56:12.292Z,6.40
2019-02-26T17:58:45.494Z,5.33
2019-02-26T18:01:16.991Z,5.37
2019-02-26T18:03:52.789Z,5.33
2019-02-26T18:06:36.433Z,5.08
2019-02-26T18:09:21.555Z,5.47
2019-02-26T18:11:55.010Z,5.78
2019-02-26T18:14:47.307Z,6.72
2019-02-26T18:17:26.670Z,6.20
2019-02-26T18:20:08.899Z,5.90
2019-02-26T18:22:43.472Z,5.85
2019-02-26T18:25:22.985Z,5.75
2019-02-26T18:28:08.858Z,5.65
2019-02-26T18:30:40.133Z,5.62
2019-02-26T18:33:11.702Z,6.33
2019-02-26T18:35:43.321Z,5.62
2019-02-26T18:38:14.936Z,6.62
2019-02-26T18:40:46.438Z,5.60
2019-02-26T18:43:19.027Z,5.10
2019-02-26T18:45:50.684Z,4.85
2019-02-26T18:48:22.220Z,4.97
2019-02-26T18:50:53.658Z,4.95
2019-02-26T18:53:25.008Z,5.25
2019-02-26T18:55:56.388Z,5.90
2019-02-26T18:58:27.928Z,5.25
2019-02-26T19:00:59.610Z,5.20
2019-02-26T19:03:31.170Z,5.47
2019-02-26T19:06:03.645Z,5.50
2019-02-26T19:08:39.180Z,7.28
2019-02-26T19:11:09.023Z,7.17
2019-02-26T19:13:41.553Z,6.15
2019-02-26T19:16:13.027Z,4.03
2019-02-26T19:18:44.687Z,4.78
2019-02-26T19:21:16.884Z,4.22
2019-02-26T19:23:48.540Z,3.90
2019-02-26T19:26:20.155Z,3.62
2019-02-26T19:28:51.495Z,4.78
2019-02-26T19:31:23.597Z,4.00
2019-02-26T19:33:56.228Z,4.75
2019-02-26T19:36:27.787Z,3.75
2019-02-26T19:39:00.963Z,3.45
2019-02-26T19:41:34.053Z,3.70
2019-02-26T19:44:05.700Z,4.03
2019-02-26T19:46:37.227Z,3.35
2019-02-26T19:49:08.906Z,3.65
2019-02-26T19:51:40.975Z,4.12
2019-02-26T19:54:12.572Z,5.05
2019-02-26T19:56:44.258Z,5.75
2019-02-26T19:59:15.816Z,4.83
2019-02-26T20:01:47.497Z,4.30
2019-02-26T20:04:19.076Z,3.55
2019-02-26T20:06:50.688Z,3.92
2019-02-26T20:09:23.007Z,3.70
2019-02-26T20:11:56.244Z,3.40
2019-02-26T20:14:28.134Z,3.47
2019-02-26T20:17:04.957Z,3.30
2019-02-26T20:19:34.017Z,3.95
2019-02-26T20:22:05.398Z,3.30
2019-02-26T20:24:37.870Z,3.83
2019-02-26T20:27:12.021Z,3.90
2019-02-26T20:29:43.459Z,3.70
2019-02-26T20:32:16.139Z,3.70
2019-02-26T20:34:47.568Z,4.10
2019-02-26T20:37:18.902Z,4.42
2019-02-26T20:39:50.223Z,4.80
2019-02-26T20:42:23.641Z,4.50
2019-02-26T20:44:58.932Z,4.90
2019-02-26T20:47:31.644Z,5.70
2019-02-26T20:50:02.659Z,5.42
2019-02-26T20:52:34.796Z,5.20
2019-02-26T20:55:25.331Z,5.22
2019-02-26T20:57:57.801Z,4.90
2019-02-26T21:00:32.342Z,4.65
2019-02-26T21:03:03.791Z,4.92
2019-02-26T21:05:35.625Z,5.03
2019-02-26T21:08:07.056Z,4.37
2019-02-26T21:10:38.669Z,4.87
2019-02-26T21:13:10.073Z,4.95
2019-02-26T21:15:41.813Z,4.95
2019-02-26T21:18:13.284Z,5.10
2019-02-26T21:20:47.001Z,5.33
2019-02-26T21:23:18.224Z,5.25
2019-02-26T21:25:49.926Z,5.37
2019-02-26T21:28:24.260Z,5.60
2019-02-26T21:30:55.823Z,5.20
2019-02-26T21:33:30.616Z,5.57
2019-02-26T21:36:00.277Z,5.53
2019-02-26T21:38:31.521Z,5.47
2019-02-26T21:41:02.914Z,4.97
2019-02-26T21:43:35.448Z,6.53
2019-02-26T21:46:06.985Z,6.70
2019-02-26T21:48:38.466Z,7.37
2019-02-26T21:51:10.003Z,8.00
2019-02-26T21:53:41.432Z,7.63
2019-02-26T21:56:15.448Z,6.87
2019-02-26T21:58:45.809Z,8.50
2019-02-26T22:01:17.224Z,7.35
2019-02-26T22:03:48.796Z,7.30
2019-02-26T22:06:20.290Z,7.97
2019-02-26T22:08:51.741Z,8.33
2019-02-26T22:11:23.015Z,8.38
2019-02-26T22:13:54.582Z,8.20
2019-02-26T22:16:26.077Z,8.00
2019-02-26T22:18:58.271Z,8.13
2019-02-26T22:21:31.326Z,8.33
2019-02-26T22:24:04.647Z,8.67
2019-02-26T22:26:35.848Z,8.25
2019-02-26T22:29:09.327Z,7.83
2019-02-26T22:31:40.667Z,8.40
2019-02-26T22:34:12.034Z,9.23
2019-02-26T22:36:43.298Z,10.43
2019-02-26T22:39:15.066Z,12.77
2019-02-26T22:41:46.492Z,12.50
2019-02-26T22:44:18.645Z,10.70
2019-02-26T22:46:51.012Z,11.60
2019-02-26T22:49:22.553Z,12.37
2019-02-26T22:51:53.898Z,12.00
2019-02-26T22:54:25.205Z,11.97
2019-02-26T22:56:56.969Z,9.90
2019-02-26T22:59:28.854Z,11.37
2019-02-26T23:02:00.431Z,10.90
2019-02-26T23:04:35.017Z,9.27
2019-02-26T23:07:06.412Z,8.63
2019-02-26T23:09:38.789Z,9.50
2019-02-26T23:12:11.770Z,9.30
2019-02-26T23:14:44.504Z,9.03
2019-02-26T23:17:15.972Z,7.63
2019-02-26T23:19:47.331Z,7.33
2019-02-26T23:22:20.935Z,7.20
2019-02-26T23:24:53.415Z,6.93
2019-02-26T23:27:24.812Z,7.70
2019-02-26T23:29:56.536Z,7.87
2019-02-26T23:32:28.617Z,6.97
2019-02-26T23:35:14.766Z,6.77
2019-02-26T23:37:46.243Z,8.03
2019-02-26T23:40:18.588Z,6.90
2019-02-26T23:42:50.205Z,7.27
2019-02-26T23:45:23.974Z,7.63
2019-02-26T23:47:54.784Z,7.90
2019-02-26T23:50:26.192Z,8.23
2019-02-26T23:53:00.780Z,7.13
2019-02-26T23:55:30.941Z,7.97
2019-02-26T23:58:02.320Z,8.17
